createdAt,value
2018-03-08T00:03:30.656Z,6.20
2018-03-08T00:05:58.083Z,7.75
2018-03-08T00:08:25.500Z,7.70
2018-03-08T00:10:52.924Z,6.32
2018-03-08T00:13:20.365Z,5.07
2018-03-08T00:15:47.788Z,5.80
2018-03-08T00:18:15.651Z,5.18
2018-03-08T00:20:43.028Z,5.32
2018-03-08T00:23:10.458Z,6.12
2018-03-08T00:25:37.880Z,5.05
2018-03-08T00:28:05.316Z,9.73
2018-03-08T00:30:32.739Z,7.60
2018-03-08T00:33:00.573Z,3.95
2018-03-08T00:35:28.028Z,5.03
2018-03-08T00:37:55.430Z,7.22
2018-03-08T00:40:22.850Z,6.25
2018-03-08T00:42:50.271Z,5.43
2018-03-08T00:45:17.700Z,6.10
2018-03-08T00:47:45.124Z,5.22
2018-03-08T00:50:12.941Z,5.15
2018-03-08T00:52:40.366Z,6.57
2018-03-08T00:55:07.789Z,5.97
2018-03-08T00:57:35.221Z,5.30
2018-03-08T01:00:02.636Z,6.22
2018-03-08T01:02:30.076Z,6.07
2018-03-08T01:04:57.490Z,7.62
2018-03-08T01:07:24.917Z,4.95
2018-03-08T01:09:52.346Z,11.60
2018-03-08T01:12:19.796Z,5.10
2018-03-08T01:14:47.620Z,9.73
2018-03-08T01:17:15.652Z,6.37
2018-03-08T01:19:43.073Z,6.47
2018-03-08T01:22:10.505Z,7.43
2018-03-08T01:24:37.927Z,9.38
2018-03-08T01:27:05.346Z,5.93
2018-03-08T01:29:32.773Z,6.45
2018-03-08T01:34:33.065Z,6.40
2018-03-08T01:37:00.484Z,4.47
2018-03-08T01:39:27.905Z,7.50
2018-03-08T01:41:55.322Z,5.45
2018-03-08T01:44:23.145Z,6.30
2018-03-08T01:46:50.761Z,7.30
2018-03-08T01:49:18.188Z,5.43
2018-03-08T01:51:57.368Z,6.43
2018-03-08T01:54:24.788Z,6.05
2018-03-08T01:56:52.622Z,6.55
2018-03-08T01:59:20.040Z,5.37
2018-03-08T02:01:47.463Z,5.72
2018-03-08T02:04:15.283Z,6.28
2018-03-08T02:06:42.703Z,6.00
2018-03-08T02:09:10.131Z,5.57
2018-03-08T02:11:37.551Z,7.00
2018-03-08T02:14:04.981Z,4.75
2018-03-08T02:16:32.400Z,8.48
2018-03-08T02:18:59.834Z,4.28
2018-03-08T02:21:27.262Z,7.00
2018-03-08T02:23:54.683Z,6.28
2018-03-08T02:26:22.500Z,5.30
2018-03-08T02:28:49.925Z,7.00
2018-03-08T02:31:17.340Z,5.60
2018-03-08T02:33:44.767Z,5.53
2018-03-08T02:36:12.197Z,5.03
2018-03-08T02:38:39.672Z,7.37
2018-03-08T02:41:07.088Z,6.97
2018-03-08T02:43:34.928Z,6.80
2018-03-08T02:46:02.352Z,5.30
2018-03-08T02:48:29.794Z,7.10
2018-03-08T02:50:57.205Z,5.40
2018-03-08T02:53:24.637Z,6.03
2018-03-08T02:55:52.060Z,6.28
2018-03-08T02:58:19.485Z,6.55
2018-03-08T03:00:46.901Z,4.75
2018-03-08T03:03:14.325Z,4.87
2018-03-08T03:05:41.745Z,5.65
2018-03-08T03:08:09.564Z,8.52
2018-03-08T03:10:36.986Z,6.15
2018-03-08T03:13:04.410Z,8.73
2018-03-08T03:15:31.832Z,7.75
2018-03-08T03:17:59.261Z,9.00
2018-03-08T03:20:26.683Z,8.10
2018-03-08T03:22:54.104Z,6.53
2018-03-08T03:25:21.524Z,6.03
2018-03-08T03:27:48.953Z,5.62
2018-03-08T03:30:16.785Z,5.20
2018-03-08T03:32:44.228Z,7.80
2018-03-08T03:35:11.672Z,6.87
2018-03-08T03:37:39.109Z,6.35
2018-03-08T03:40:06.929Z,5.97
2018-03-08T03:42:34.357Z,8.23
2018-03-08T03:45:01.785Z,6.93
2018-03-08T03:47:29.237Z,6.70
2018-03-08T03:49:56.661Z,8.27
2018-03-08T03:52:24.081Z,7.60
2018-03-08T03:54:51.505Z,6.25
2018-03-08T03:57:19.332Z,6.10
2018-03-08T03:59:46.773Z,6.85
2018-03-08T04:02:14.203Z,8.77
2018-03-08T04:04:41.620Z,7.53
2018-03-08T04:07:09.036Z,5.80
2018-03-08T04:09:36.455Z,6.95
2018-03-08T04:12:04.279Z,6.78
2018-03-08T04:14:31.703Z,6.80
2018-03-08T04:16:59.119Z,6.55
2018-03-08T04:19:26.584Z,6.75
2018-03-08T04:21:54.030Z,7.00
2018-03-08T04:24:21.485Z,4.95
2018-03-08T04:26:48.929Z,8.75
2018-03-08T04:29:16.376Z,8.30
2018-03-08T04:31:44.341Z,7.50
2018-03-08T04:34:11.800Z,9.38
2018-03-08T04:36:40.169Z,8.13
2018-03-08T04:39:07.624Z,8.95
2018-03-08T04:41:35.079Z,6.80
2018-03-08T04:44:02.512Z,9.07
2018-03-08T04:46:29.946Z,7.47
2018-03-08T04:48:57.815Z,5.45
2018-03-08T04:51:25.255Z,8.75
2018-03-08T04:53:52.704Z,5.82
2018-03-08T04:56:20.155Z,9.88
2018-03-08T04:58:47.612Z,8.23
2018-03-08T05:01:15.059Z,9.13
2018-03-08T05:03:46.495Z,9.13
2018-03-08T05:06:13.938Z,8.77
2018-03-08T05:08:41.934Z,9.15
2018-03-08T05:11:09.353Z,9.77
2018-03-08T05:13:36.784Z,9.00
2018-03-08T05:16:04.212Z,8.88
2018-03-08T05:18:31.649Z,9.57
2018-03-08T05:20:59.068Z,9.30
2018-03-08T05:23:26.500Z,8.18
2018-03-08T05:25:54.322Z,6.57
2018-03-08T05:28:21.745Z,9.65
2018-03-08T05:30:49.173Z,10.30
2018-03-08T05:33:16.589Z,6.53
2018-03-08T05:35:44.009Z,8.52
2018-03-08T05:38:11.432Z,14.45
2018-03-08T05:40:38.857Z,11.15
2018-03-08T05:43:06.281Z,11.90
2018-03-08T05:45:33.715Z,13.05
2018-03-08T05:48:01.132Z,10.55
2018-03-08T05:50:28.583Z,11.02
2018-03-08T05:52:56.001Z,13.32
2018-03-08T05:55:23.428Z,11.57
2018-03-08T05:57:50.850Z,12.18
2018-03-08T06:00:18.286Z,10.60
2018-03-08T06:02:45.710Z,12.00
2018-03-08T06:05:13.137Z,10.45
2018-03-08T06:07:40.568Z,11.77
2018-03-08T06:10:08.002Z,15.77
2018-03-08T06:12:35.433Z,12.73
2018-03-08T06:15:03.261Z,16.08
2018-03-08T06:17:30.700Z,14.07
2018-03-08T06:19:58.132Z,14.65
2018-03-08T06:22:25.557Z,13.13
2018-03-08T06:24:53.434Z,11.05
2018-03-08T06:27:22.840Z,10.40
2018-03-08T06:29:50.331Z,44.55
2018-03-08T06:32:17.794Z,19.35
2018-03-08T06:34:45.221Z,17.50
2018-03-08T06:37:12.645Z,13.88
2018-03-08T06:39:40.165Z,17.20
2018-03-08T06:42:07.571Z,16.77
2018-03-08T06:44:35.394Z,13.07
2018-03-08T06:47:02.825Z,17.62
2018-03-08T06:49:30.291Z,15.85
2018-03-08T06:51:57.746Z,13.93
2018-03-08T06:54:26.040Z,15.63
2018-03-08T06:56:53.544Z,12.73
2018-03-08T06:59:20.960Z,15.10
2018-03-08T07:01:48.383Z,13.62
2018-03-08T07:04:15.809Z,8.90
2018-03-08T07:06:43.233Z,10.15
2018-03-08T07:09:10.664Z,12.32
2018-03-08T07:11:38.085Z,13.73
2018-03-08T07:14:05.908Z,14.80
2018-03-08T07:16:33.388Z,13.77
2018-03-08T07:19:00.842Z,10.10
2018-03-08T07:21:28.369Z,13.52
2018-03-08T07:23:55.779Z,13.30
2018-03-08T07:26:23.606Z,10.88
2018-03-08T07:28:51.030Z,8.02
2018-03-08T07:31:18.469Z,11.00
2018-03-08T07:33:45.924Z,11.02
2018-03-08T07:36:13.363Z,12.35
2018-03-08T07:38:41.193Z,17.77
2018-03-08T07:41:08.619Z,13.13
2018-03-08T07:43:36.041Z,9.90
2018-03-08T07:46:03.884Z,13.85
2018-03-08T07:48:31.314Z,10.35
2018-03-08T07:50:58.749Z,11.63
2018-03-08T07:53:26.193Z,7.37
2018-03-08T07:55:53.649Z,9.18
2018-03-08T07:58:21.068Z,8.07
2018-03-08T08:00:48.503Z,9.27
2018-03-08T08:03:16.541Z,10.88
2018-03-08T08:05:55.582Z,10.38
2018-03-08T08:08:34.852Z,6.15
2018-03-08T08:11:02.304Z,9.13
2018-03-08T08:13:29.726Z,10.20
2018-03-08T08:15:57.174Z,10.98
2018-03-08T08:18:24.973Z,7.97
2018-03-08T08:20:52.406Z,8.25
2018-03-08T08:23:19.820Z,9.27
2018-03-08T08:25:47.648Z,6.15
2018-03-08T08:28:15.079Z,7.90
2018-03-08T08:30:42.541Z,6.10
2018-03-08T08:33:10.011Z,5.18
2018-03-08T08:35:37.433Z,6.47
2018-03-08T08:38:04.917Z,4.57
2018-03-08T08:40:32.380Z,6.10
2018-03-08T08:42:59.830Z,7.07
2018-03-08T08:45:27.278Z,5.90
2018-03-08T08:47:54.714Z,5.95
2018-03-08T08:50:22.137Z,7.28
2018-03-08T08:52:49.574Z,6.80
2018-03-08T08:55:16.993Z,5.25
2018-03-08T08:57:44.449Z,5.25
2018-03-08T09:00:11.937Z,6.28
2018-03-08T09:02:39.333Z,4.80
2018-03-08T09:05:07.999Z,5.57
2018-03-08T09:07:35.464Z,6.20
2018-03-08T09:10:02.848Z,4.75
2018-03-08T09:12:30.663Z,7.78
2018-03-08T09:14:58.080Z,4.05
2018-03-08T09:17:25.519Z,5.57
2018-03-08T09:19:53.689Z,4.28
2018-03-08T09:22:21.505Z,4.30
2018-03-08T09:24:48.936Z,9.18
2018-03-08T09:27:16.378Z,4.00
2018-03-08T09:29:43.825Z,3.75
2018-03-08T09:32:11.270Z,4.05
2018-03-08T09:34:38.697Z,6.85
2018-03-08T09:37:06.121Z,3.70
2018-03-08T09:39:33.548Z,5.12
2018-03-08T09:42:01.368Z,4.60
2018-03-08T09:44:28.802Z,4.80
2018-03-08T09:46:56.216Z,2.85
2018-03-08T09:49:23.651Z,3.65
2018-03-08T09:51:51.106Z,3.40
2018-03-08T09:54:18.509Z,3.33
2018-03-08T09:56:45.932Z,4.03
2018-03-08T09:59:13.767Z,2.53
2018-03-08T10:01:41.241Z,6.65
2018-03-08T10:04:08.720Z,6.00
2018-03-08T10:06:36.537Z,3.20
2018-03-08T10:09:03.992Z,5.20
2018-03-08T10:11:31.460Z,2.92
2018-03-08T10:13:58.881Z,2.55
2018-03-08T10:16:26.326Z,3.30
2018-03-08T10:18:53.753Z,7.07
2018-03-08T10:21:44.234Z,4.22
2018-03-08T10:23:49.434Z,6.78
2018-03-08T10:26:16.873Z,3.65
2018-03-08T10:28:44.684Z,6.20
2018-03-08T10:31:12.126Z,7.95
2018-03-08T10:33:39.544Z,6.03
2018-03-08T10:36:06.977Z,5.43
2018-03-08T10:38:34.401Z,4.55
2018-03-08T10:41:02.915Z,4.30
2018-03-08T10:43:30.294Z,4.95
2018-03-08T10:45:58.116Z,4.05
2018-03-08T10:48:25.540Z,3.80
2018-03-08T10:50:52.979Z,3.67
2018-03-08T10:53:20.403Z,3.87
2018-03-08T10:55:48.432Z,2.67
2018-03-08T10:58:15.852Z,6.68
2018-03-08T11:00:46.225Z,4.70
2018-03-08T11:03:13.654Z,3.03
2018-03-08T11:05:46.911Z,4.05
2018-03-08T11:08:14.731Z,2.80
2018-03-08T11:10:42.160Z,3.95
2018-03-08T11:13:09.593Z,2.70
2018-03-08T11:15:37.426Z,4.18
2018-03-08T11:18:04.859Z,4.25
2018-03-08T11:20:32.293Z,4.20
2018-03-08T11:22:59.716Z,4.45
2018-03-08T11:25:27.157Z,2.97
2018-03-08T11:27:54.584Z,2.67
2018-03-08T11:30:22.068Z,1.60
2018-03-08T11:32:49.453Z,2.45
2018-03-08T11:35:17.288Z,2.70
2018-03-08T11:37:44.716Z,2.65
2018-03-08T11:40:12.176Z,3.05
2018-03-08T11:42:39.580Z,1.83
2018-03-08T11:45:07.438Z,1.98
2018-03-08T11:47:34.865Z,4.25
2018-03-08T11:50:02.305Z,1.85
2018-03-08T11:52:29.760Z,4.37
2018-03-08T11:54:57.288Z,5.32
2018-03-08T11:57:24.689Z,2.97
2018-03-08T11:59:52.112Z,4.07
2018-03-08T12:02:19.591Z,6.22
2018-03-08T12:04:47.053Z,7.15
2018-03-08T12:07:14.474Z,2.85
2018-03-08T12:09:41.896Z,1.73
2018-03-08T12:12:09.328Z,2.65
2018-03-08T12:14:36.755Z,8.30
2018-03-08T12:17:04.239Z,1.15
2018-03-08T12:19:32.009Z,2.40
2018-03-08T12:21:59.444Z,1.25
2018-03-08T12:24:26.878Z,3.75
2018-03-08T12:26:54.317Z,2.53
2018-03-08T12:29:22.140Z,1.87
2018-03-08T12:31:49.592Z,3.62
2018-03-08T12:34:17.016Z,2.60
2018-03-08T12:36:44.448Z,2.35
2018-03-08T12:39:12.289Z,1.45
2018-03-08T12:41:39.720Z,2.17
2018-03-08T12:44:07.157Z,3.35
2018-03-08T12:46:34.613Z,2.03
2018-03-08T12:49:02.040Z,4.40
2018-03-08T12:51:29.933Z,1.35
2018-03-08T12:53:57.354Z,3.55
2018-03-08T12:56:24.776Z,3.08
2018-03-08T12:58:52.202Z,1.35
2018-03-08T13:01:19.637Z,9.23
2018-03-08T13:03:47.083Z,4.55
2018-03-08T13:06:14.861Z,2.95
2018-03-08T13:08:42.700Z,1.10
2018-03-08T13:11:10.140Z,3.10
2018-03-08T13:13:37.563Z,1.77
2018-03-08T13:16:05.008Z,3.37
2018-03-08T13:18:32.461Z,1.65
2018-03-08T13:20:59.894Z,2.60
2018-03-08T13:23:27.725Z,1.20
2018-03-08T13:25:55.181Z,2.05
2018-03-08T13:28:22.623Z,1.90
2018-03-08T13:30:50.040Z,1.90
2018-03-08T13:33:17.873Z,2.78
2018-03-08T13:35:45.305Z,2.55
2018-03-08T13:38:12.761Z,2.55
2018-03-08T13:40:40.202Z,1.00
2018-03-08T13:43:07.641Z,0.73
2018-03-08T13:45:35.076Z,4.37
2018-03-08T13:48:02.917Z,3.40
2018-03-08T13:50:30.361Z,5.30
2018-03-08T13:52:57.810Z,0.90
2018-03-08T13:55:25.241Z,1.30
2018-03-08T13:57:52.720Z,1.55
2018-03-08T14:00:20.158Z,1.27
2018-03-08T14:02:47.952Z,3.30
2018-03-08T14:05:15.394Z,4.82
2018-03-08T14:07:42.838Z,1.58
2018-03-08T14:10:10.269Z,1.15
2018-03-08T14:12:38.101Z,2.45
2018-03-08T14:15:05.532Z,3.62
2018-03-08T14:17:32.986Z,2.62
2018-03-08T14:20:00.417Z,0.80
2018-03-08T14:22:27.849Z,2.05
2018-03-08T14:24:55.681Z,1.02
2018-03-08T14:27:23.136Z,1.42
2018-03-08T14:29:50.570Z,1.27
2018-03-08T14:32:18.038Z,2.55
2018-03-08T14:34:45.497Z,1.15
2018-03-08T14:39:45.888Z,1.33
2018-03-08T14:42:13.352Z,1.12
2018-03-08T14:44:40.760Z,4.62
2018-03-08T14:47:08.185Z,2.25
2018-03-08T14:49:35.625Z,1.92
2018-03-08T14:52:03.053Z,2.85
2018-03-08T14:54:30.505Z,1.37
2018-03-08T14:56:58.702Z,1.80
2018-03-08T14:59:26.545Z,1.00
2018-03-08T15:01:53.976Z,1.33
2018-03-08T15:04:21.408Z,0.80
2018-03-08T15:06:48.848Z,1.05
2018-03-08T15:09:16.282Z,2.10
2018-03-08T15:11:43.725Z,1.40
2018-03-08T15:14:11.157Z,1.42
2018-03-08T15:16:38.617Z,2.00
2018-03-08T15:19:06.071Z,1.15
2018-03-08T15:21:33.529Z,0.80
2018-03-08T15:24:00.961Z,0.73
2018-03-08T15:26:28.405Z,0.80
2018-03-08T15:28:55.846Z,2.87
2018-03-08T15:31:23.288Z,2.45
2018-03-08T15:33:50.713Z,3.57
2018-03-08T15:36:18.149Z,2.00
2018-03-08T15:38:45.605Z,0.83
2018-03-08T15:41:13.108Z,0.60
2018-03-08T15:43:40.554Z,1.05
2018-03-08T15:46:08.010Z,1.50
2018-03-08T15:48:35.468Z,1.95
2018-03-08T15:51:02.929Z,5.05
2018-03-08T15:53:30.383Z,2.85
2018-03-08T15:55:57.811Z,1.30
2018-03-08T15:58:25.263Z,1.37
2018-03-08T16:00:52.690Z,3.83
2018-03-08T16:03:20.153Z,3.58
2018-03-08T16:05:47.584Z,2.75
2018-03-08T16:11:18.164Z,2.85
2018-03-08T16:13:45.596Z,5.80
2018-03-08T16:16:13.427Z,1.90
2018-03-08T16:18:40.899Z,1.12
2018-03-08T16:21:08.337Z,1.65
2018-03-08T16:23:35.771Z,2.17
2018-03-08T16:26:03.196Z,2.57
2018-03-08T16:28:30.657Z,1.30
2018-03-08T16:33:31.936Z,1.27
2018-03-08T16:35:59.425Z,1.45
2018-03-08T16:38:26.805Z,1.48
2018-03-08T16:40:54.236Z,0.80
2018-03-08T16:43:21.680Z,1.75
2018-03-08T16:45:49.113Z,4.55
2018-03-08T16:48:16.549Z,1.23
2018-03-08T16:50:44.372Z,2.23
2018-03-08T16:53:11.813Z,1.37
2018-03-08T16:55:39.270Z,2.08
2018-03-08T16:58:07.538Z,2.03
2018-03-08T17:00:34.976Z,1.35
2018-03-08T17:03:02.427Z,2.35
2018-03-08T17:05:29.844Z,1.95
2018-03-08T17:07:57.294Z,2.15
2018-03-08T17:10:24.727Z,6.75
2018-03-08T17:12:52.161Z,0.85
2018-03-08T17:15:19.612Z,1.87
2018-03-08T17:17:47.052Z,1.00
2018-03-08T17:20:14.893Z,2.80
2018-03-08T17:22:42.320Z,1.62
2018-03-08T17:25:09.776Z,1.00
2018-03-08T17:27:37.239Z,2.03
2018-03-08T17:30:04.659Z,2.90
2018-03-08T17:32:32.132Z,0.62
2018-03-08T17:34:59.653Z,1.58
2018-03-08T17:40:27.721Z,0.70
2018-03-08T17:42:55.177Z,0.80
2018-03-08T17:45:22.606Z,0.87
2018-03-08T17:47:50.559Z,4.10
2018-03-08T17:50:17.964Z,1.60
2018-03-08T17:52:45.405Z,1.17
2018-03-08T17:55:12.845Z,1.23
2018-03-08T17:57:40.284Z,2.10
2018-03-08T18:00:07.717Z,1.15
2018-03-08T18:02:35.149Z,2.05
2018-03-08T18:05:02.584Z,0.85
2018-03-08T18:07:30.048Z,3.83
2018-03-08T18:09:57.480Z,4.72
2018-03-08T18:12:24.938Z,1.27
2018-03-08T18:14:52.365Z,0.80
2018-03-08T18:17:19.797Z,3.80
2018-03-08T18:19:47.211Z,1.65
2018-03-08T18:22:14.655Z,1.48
2018-03-08T18:24:42.073Z,2.20
2018-03-08T18:27:09.501Z,2.40
2018-03-08T18:29:36.930Z,1.10
2018-03-08T18:32:04.352Z,0.93
2018-03-08T18:34:32.171Z,0.75
2018-03-08T18:36:59.629Z,1.02
2018-03-08T18:39:27.040Z,2.15
2018-03-08T18:41:54.468Z,0.88
2018-03-08T18:44:21.889Z,1.50
2018-03-08T18:46:49.340Z,0.95
2018-03-08T18:49:16.752Z,1.25
2018-03-08T18:51:44.575Z,2.30
2018-03-08T18:54:12.007Z,0.60
2018-03-08T18:59:57.590Z,2.15
2018-03-08T19:02:25.012Z,0.62
2018-03-08T19:04:52.432Z,1.60
2018-03-08T19:07:19.864Z,1.65
2018-03-08T19:09:47.289Z,1.20
2018-03-08T19:12:14.716Z,1.33
2018-03-08T19:14:42.146Z,3.53
2018-03-08T19:17:09.595Z,1.10
2018-03-08T19:19:37.012Z,1.60
2018-03-08T19:22:04.841Z,1.00
2018-03-08T19:24:32.257Z,0.80
2018-03-08T19:26:59.700Z,1.08
2018-03-08T19:29:27.120Z,2.10
2018-03-08T19:31:54.546Z,0.60
2018-03-08T19:34:21.983Z,5.55
2018-03-08T19:36:49.405Z,0.90
2018-03-08T19:39:16.835Z,0.60
2018-03-08T19:41:44.253Z,0.73
2018-03-08T19:44:11.690Z,0.70
2018-03-08T19:46:39.505Z,2.28
2018-03-08T19:49:06.985Z,2.05
2018-03-08T19:51:34.420Z,0.80
2018-03-08T19:54:01.855Z,1.87
2018-03-08T19:56:29.274Z,2.92
2018-03-08T19:58:56.697Z,1.25
2018-03-08T20:01:24.122Z,0.77
2018-03-08T20:03:51.552Z,2.22
2018-03-08T20:06:18.969Z,1.02
2018-03-08T20:08:46.464Z,1.60
2018-03-08T20:11:15.742Z,1.20
2018-03-08T20:13:43.197Z,0.80
2018-03-08T20:16:10.715Z,1.48
2018-03-08T20:18:38.153Z,1.27
2018-03-08T20:21:05.604Z,1.00
2018-03-08T20:23:33.005Z,0.90
2018-03-08T20:26:00.420Z,0.80
2018-03-08T20:28:27.857Z,0.70
2018-03-08T20:30:55.664Z,1.00
2018-03-08T20:33:23.100Z,0.70
2018-03-08T20:35:50.534Z,0.93
2018-03-08T20:38:17.964Z,0.60
2018-03-08T20:40:45.396Z,1.35
2018-03-08T20:43:12.825Z,0.70
2018-03-08T20:45:40.288Z,2.55
2018-03-08T20:48:07.712Z,1.50
2018-03-08T20:50:35.533Z,0.80
2018-03-08T20:53:02.969Z,1.50
2018-03-08T20:55:30.388Z,2.55
2018-03-08T20:57:58.207Z,3.15
2018-03-08T21:00:25.624Z,1.23
2018-03-08T21:02:53.465Z,1.12
2018-03-08T21:05:20.884Z,0.90
2018-03-08T21:07:48.317Z,1.10
2018-03-08T21:10:15.744Z,1.55
2018-03-08T21:12:43.825Z,0.80
2018-03-08T21:15:11.233Z,0.80
2018-03-08T21:17:38.672Z,0.80
2018-03-08T21:20:06.135Z,0.60
2018-03-08T21:22:33.592Z,2.35
2018-03-08T21:25:01.044Z,1.02
2018-03-08T21:27:28.456Z,0.90
2018-03-08T21:29:56.277Z,1.23
2018-03-08T21:32:23.696Z,0.77
2018-03-08T21:34:51.124Z,1.58
2018-03-08T21:37:18.545Z,5.18
2018-03-08T21:39:45.981Z,1.83
2018-03-08T21:42:13.403Z,1.08
2018-03-08T21:44:41.229Z,0.60
2018-03-08T21:47:08.708Z,1.08
2018-03-08T21:49:36.153Z,0.90
2018-03-08T21:52:03.578Z,2.90
2018-03-08T21:54:30.997Z,1.92
2018-03-08T21:56:58.452Z,1.67
2018-03-08T21:59:26.388Z,1.50
2018-03-08T22:01:53.808Z,0.80
2018-03-08T22:04:21.242Z,1.25
2018-03-08T22:06:49.045Z,0.80
2018-03-08T22:09:16.473Z,2.70
2018-03-08T22:11:43.894Z,0.70
2018-03-08T22:14:11.321Z,2.20
2018-03-08T22:16:38.765Z,0.90
2018-03-08T22:19:06.201Z,0.60
2018-03-08T22:21:33.621Z,1.00
2018-03-08T22:24:01.058Z,0.80
2018-03-08T22:26:28.485Z,1.10
2018-03-08T22:28:55.934Z,2.55
2018-03-08T22:31:23.348Z,0.80
2018-03-08T22:33:51.177Z,1.20
2018-03-08T22:36:18.624Z,0.60
2018-03-08T22:38:46.024Z,1.02
2018-03-08T22:41:15.456Z,1.23
2018-03-08T22:43:42.884Z,0.95
2018-03-08T22:46:10.307Z,2.53
2018-03-08T22:48:37.755Z,1.65
2018-03-08T22:51:05.180Z,0.70
2018-03-08T22:53:32.606Z,0.82
2018-03-08T22:56:00.025Z,1.30
2018-03-08T22:58:27.449Z,0.80
2018-03-08T23:00:54.868Z,0.77
2018-03-08T23:03:27.896Z,0.70
2018-03-08T23:05:55.320Z,0.90
2018-03-08T23:08:22.754Z,0.95
2018-03-08T23:10:50.183Z,1.85
2018-03-08T23:13:17.600Z,0.62
2018-03-08T23:15:45.024Z,1.10
2018-03-08T23:18:12.457Z,2.65
2018-03-08T23:20:39.867Z,1.17
2018-03-08T23:23:07.684Z,1.48
2018-03-08T23:25:35.114Z,0.80
2018-03-08T23:28:02.524Z,0.70
2018-03-08T23:30:29.964Z,1.33
2018-03-08T23:32:57.397Z,1.00
2018-03-08T23:35:24.848Z,1.62
2018-03-08T23:37:52.268Z,1.12
2018-03-08T23:40:20.097Z,0.70
2018-03-08T23:42:47.524Z,0.60
2018-03-08T23:45:14.964Z,0.95
2018-03-08T23:47:42.409Z,1.37
2018-03-08T23:50:09.844Z,0.90
2018-03-08T23:52:37.289Z,1.00
2018-03-08T23:55:04.744Z,2.85
2018-03-08T23:57:32.170Z,0.70
2018-03-08T23:59:59.601Z,0.80
